Whyteleafe, United Kingdom
Current Conditions -  °F | °C
As of 4:20 PM on Wednesday 26 Nov 2014 (Local Time) from EGKB Reporting Station
Moderate Fog Moderate Fog  
Wind Chill: 46°   Ceiling: Unl
Heat Index: 46°   Visibility: 0.12mi
Dew Point: 46°   Wind: 2mph
Humidity: 100%   Direction: 30°NNE
Pressure: 29.8"   Gusts: NA
Location:  51.31°N, 0.08°W
Report Text: EGKB 261620Z 03002KT 0200 R21/0250 FG VV/// 08/08 Q1009
Loading
Personal Weather Stations






























Interactive Weather Map New forecast layout! Learn more

10-Day Weather Forecast

Advertisements
Track Severe Weather on mobile